首页
METAR-TAF:

METAR-TAF

机场 :

渥太华麦克唐纳-卡蒂埃国际机场

渥太華, 安大略省, 加拿大

纬度: 45-19N, 经度: 075-40W, 海拔: 116米

当前天气观测

该预报发布于1小时和2分钟前的01:00 UTC
风速8节,风向西北
温度 0°C
湿度 55%
气压 1018 hPa
能見度: 24.1公里
少量云层高于5500英尺
少量云层高于16000英尺
散云层高于22000英尺

METAR: CYOW 220100Z 31008KT 15SM FEW055 FEW160 SCT220 00/M08 A3006 RMK SC1AC1CI2 SC TR SLP188

时间: 22:02 (02:02 UTC)

预报

该预报发布于2小时和24分钟前的23:38 UTC
预报有效从22日的 00点(UTC)到 22日的 24点(UTC)
风速12节,风向西
能見度: 10公里
多云层高于5000英尺
短暂存在
从 22日的 00点(UTC)到 22日的 04点(UTC)
散云层高于5000英尺
从 22日的 0400点(UTC)
风速8节,风向西
能見度: 10公里
散云层高于4000英尺
散云层高于10000英尺
成为
从 22日的 11点(UTC)到 22日的 13点(UTC)
风速5节,风向
从 22日的 1500点(UTC)
风速7节,风向
能見度: 10公里
多云层高于4000英尺
短暂存在
从 22日的 15点(UTC)到 22日的 17点(UTC)
能見度: 10公里
多云层高于2000英尺
小阵雪, 雨
从 22日的 1700点(UTC)
风速7节,风向
能見度: 10公里
多云层高于3000英尺
短暂存在
从 22日的 17点(UTC)到 22日的 22点(UTC)
多云层高于2000英尺
从 22日的 2200点(UTC)
风速7节,风向东转东南
能見度: 10公里
多云层高于2000英尺
小雨, 小毛毛雨

TAF: CYOW 212338Z 2200/2224 27012KT P6SM BKN050 TEMPO 2200/2204 SCT050 FM220400 26008KT P6SM SCT040 SCT100 BECMG 2211/2213 17005KT FM221500 17007KT P6SM BKN040 TEMPO 2215/2217 P6SM -SHSNRA BKN020 FM221700 17007KT P6SM BKN030 TEMPO 2217/2222 BKN020 FM222200 12007KT P6SM -RA -DZ BKN020 RMK NXT FCST BY 220300Z

超过4000个机场的气象观测和天气预报(METAR&TAF报告)。

可查询的气象台以黄色和红色小点在地图上表示。

将鼠标移到小点上方,可查看气象台名称。

然后点击查看天气观测和预报。

如需切换地图:点击带黑十字的绿色按钮放大地图;点击带横线的绿色按钮缩小地图;或者点击绿色箭头查看邻近地区的地图。


METAR-TAF: